sensor_id;sensor_type;location;lat;lon;timestamp;temperature;humidity
21676;DHT22;10999;51.332;9.458;2023-07-28T00:02:01;16.90;99.90
21676;DHT22;10999;51.332;9.458;2023-07-28T00:04:27;16.90;99.90
21676;DHT22;10999;51.332;9.458;2023-07-28T00:06:54;16.80;99.90
21676;DHT22;10999;51.332;9.458;2023-07-28T00:09:21;16.80;99.90
21676;DHT22;10999;51.332;9.458;2023-07-28T00:11:49;16.80;99.90
21676;DHT22;10999;51.332;9.458;2023-07-28T00:14:16;16.80;99.90
21676;DHT22;10999;51.332;9.458;2023-07-28T00:16:43;16.80;99.90
21676;DHT22;10999;51.332;9.458;2023-07-28T00:19:10;16.90;99.90
21676;DHT22;10999;51.332;9.458;2023-07-28T00:21:37;16.80;99.90
21676;DHT22;10999;51.332;9.458;2023-07-28T00:24:04;16.80;99.90
21676;DHT22;10999;51.332;9.458;2023-07-28T00:26:31;16.80;99.90
21676;DHT22;10999;51.332;9.458;2023-07-28T00:28:58;16.80;99.90
21676;DHT22;10999;51.332;9.458;2023-07-28T00:31:25;16.80;99.90
21676;DHT22;10999;51.332;9.458;2023-07-28T00:33:52;16.80;99.90
21676;DHT22;10999;51.332;9.458;2023-07-28T00:36:19;16.80;99.90
21676;DHT22;10999;51.332;9.458;2023-07-28T00:38:46;16.80;99.90
21676;DHT22;10999;51.332;9.458;2023-07-28T00:41:13;16.80;99.90
21676;DHT22;10999;51.332;9.458;2023-07-28T00:43:40;16.80;99.90
21676;DHT22;10999;51.332;9.458;2023-07-28T00:46:08;16.70;99.90
21676;DHT22;10999;51.332;9.458;2023-07-28T00:48:35;16.70;99.90
21676;DHT22;10999;51.332;9.458;2023-07-28T00:51:02;16.80;99.90
21676;DHT22;10999;51.332;9.458;2023-07-28T00:53:29;16.70;99.90
21676;DHT22;10999;51.332;9.458;2023-07-28T00:55:57;16.80;99.90
21676;DHT22;10999;51.332;9.458;2023-07-28T00:58:24;16.80;99.90
21676;DHT22;10999;51.332;9.458;2023-07-28T01:00:51;16.80;99.90
21676;DHT22;10999;51.332;9.458;2023-07-28T01:03:18;16.80;99.90
21676;DHT22;10999;51.332;9.458;2023-07-28T01:06:22;16.70;99.90
21676;DHT22;10999;51.332;9.458;2023-07-28T01:08:59;16.70;99.90
21676;DHT22;10999;51.332;9.458;2023-07-28T01:11:29;16.70;99.90
21676;DHT22;10999;51.332;9.458;2023-07-28T01:13:56;16.70;99.90
21676;DHT22;10999;51.332;9.458;2023-07-28T01:16:22;16.60;99.90
21676;DHT22;10999;51.332;9.458;2023-07-28T01:18:50;16.60;99.90
21676;DHT22;10999;51.332;9.458;2023-07-28T01:21:22;16.60;99.90
21676;DHT22;10999;51.332;9.458;2023-07-28T01:23:59;16.60;99.90
21676;DHT22;10999;51.332;9.458;2023-07-28T01:29:00;16.70;99.90
21676;DHT22;10999;51.332;9.458;2023-07-28T01:31:27;16.70;99.90
21676;DHT22;10999;51.332;9.458;2023-07-28T01:33:54;16.60;99.90
21676;DHT22;10999;51.332;9.458;2023-07-28T01:36:21;16.60;99.90
21676;DHT22;10999;51.332;9.458;2023-07-28T01:38:48;16.60;99.90
21676;DHT22;10999;51.332;9.458;2023-07-28T01:41:14;16.60;99.90
21676;DHT22;10999;51.332;9.458;2023-07-28T01:43:41;16.70;99.90
21676;DHT22;10999;51.332;9.458;2023-07-28T01:46:08;16.60;99.90
21676;DHT22;10999;51.332;9.458;2023-07-28T01:48:35;16.60;99.90
21676;DHT22;10999;51.332;9.458;2023-07-28T01:51:02;16.60;99.90
21676;DHT22;10999;51.332;9.458;2023-07-28T01:53:29;16.60;99.90
21676;DHT22;10999;51.332;9.458;2023-07-28T01:55:55;16.60;99.90
21676;DHT22;10999;51.332;9.458;2023-07-28T01:58:22;16.60;99.90
21676;DHT22;10999;51.332;9.458;2023-07-28T02:00:49;16.60;99.90
21676;DHT22;10999;51.332;9.458;2023-07-28T02:03:16;16.60;99.90
21676;DHT22;10999;51.332;9.458;2023-07-28T02:05:43;16.60;99.90
21676;DHT22;10999;51.332;9.458;2023-07-28T02:08:11;16.60;99.90
21676;DHT22;10999;51.332;9.458;2023-07-28T02:10:38;16.60;99.90
21676;DHT22;10999;51.332;9.458;2023-07-28T02:13:04;16.60;99.90
21676;DHT22;10999;51.332;9.458;2023-07-28T02:15:31;16.50;99.90
21676;DHT22;10999;51.332;9.458;2023-07-28T02:17:58;16.60;99.90
21676;DHT22;10999;51.332;9.458;2023-07-28T02:20:25;16.60;99.90
21676;DHT22;10999;51.332;9.458;2023-07-28T02:22:52;16.50;99.90
21676;DHT22;10999;51.332;9.458;2023-07-28T02:25:19;16.50;99.90
21676;DHT22;10999;51.332;9.458;2023-07-28T02:27:45;16.50;99.90
21676;DHT22;10999;51.332;9.458;2023-07-28T02:30:12;16.50;99.90
21676;DHT22;10999;51.332;9.458;2023-07-28T02:32:39;16.50;99.90
21676;DHT22;10999;51.332;9.458;2023-07-28T02:35:06;16.40;99.90
21676;DHT22;10999;51.332;9.458;2023-07-28T02:37:33;16.50;99.90
21676;DHT22;10999;51.332;9.458;2023-07-28T02:40:00;16.40;99.90
21676;DHT22;10999;51.332;9.458;2023-07-28T02:42:27;16.40;99.90
21676;DHT22;10999;51.332;9.458;2023-07-28T02:44:54;16.40;99.90
21676;DHT22;10999;51.332;9.458;2023-07-28T02:47:20;16.40;99.90
21676;DHT22;10999;51.332;9.458;2023-07-28T02:49:47;16.40;99.90
21676;DHT22;10999;51.332;9.458;2023-07-28T02:52:14;16.40;99.90
21676;DHT22;10999;51.332;9.458;2023-07-28T02:54:41;16.40;99.90
21676;DHT22;10999;51.332;9.458;2023-07-28T02:57:08;16.30;99.90
21676;DHT22;10999;51.332;9.458;2023-07-28T02:59:34;16.30;99.90
21676;DHT22;10999;51.332;9.458;2023-07-28T03:02:01;16.30;99.90
21676;DHT22;10999;51.332;9.458;2023-07-28T03:04:28;16.30;99.90
21676;DHT22;10999;51.332;9.458;2023-07-28T03:06:55;16.30;99.90
21676;DHT22;10999;51.332;9.458;2023-07-28T03:09:22;16.30;99.90
21676;DHT22;10999;51.332;9.458;2023-07-28T03:11:49;16.20;99.90
21676;DHT22;10999;51.332;9.458;2023-07-28T03:14:16;16.20;99.90
21676;DHT22;10999;51.332;9.458;2023-07-28T03:16:43;16.30;99.90
21676;DHT22;10999;51.332;9.458;2023-07-28T03:19:10;16.20;99.90
21676;DHT22;10999;51.332;9.458;2023-07-28T03:21:37;16.20;99.90
21676;DHT22;10999;51.332;9.458;2023-07-28T03:24:06;16.20;99.90
21676;DHT22;10999;51.332;9.458;2023-07-28T03:26:32;16.20;99.90
21676;DHT22;10999;51.332;9.458;2023-07-28T03:29:00;16.20;99.90
21676;DHT22;10999;51.332;9.458;2023-07-28T03:31:26;16.20;99.90
21676;DHT22;10999;51.332;9.458;2023-07-28T03:33:53;16.20;99.90
21676;DHT22;10999;51.332;9.458;2023-07-28T03:36:20;16.20;99.90
21676;DHT22;10999;51.332;9.458;2023-07-28T03:38:47;16.10;99.90
21676;DHT22;10999;51.332;9.458;2023-07-28T03:41:14;16.10;99.90
21676;DHT22;10999;51.332;9.458;2023-07-28T03:43:41;16.10;99.90
21676;DHT22;10999;51.332;9.458;2023-07-28T03:46:08;16.10;99.90
21676;DHT22;10999;51.332;9.458;2023-07-28T03:48:35;16.10;99.90
21676;DHT22;10999;51.332;9.458;2023-07-28T03:51:02;16.10;99.90
21676;DHT22;10999;51.332;9.458;2023-07-28T03:53:28;16.10;99.90
21676;DHT22;10999;51.332;9.458;2023-07-28T03:55:55;16.10;99.90
21676;DHT22;10999;51.332;9.458;2023-07-28T03:58:27;16.10;99.90
21676;DHT22;10999;51.332;9.458;2023-07-28T04:00:54;16.10;99.90
21676;DHT22;10999;51.332;9.458;2023-07-28T04:03:22;16.10;99.90
21676;DHT22;10999;51.332;9.458;2023-07-28T04:05:49;16.00;99.90
21676;DHT22;10999;51.332;9.458;2023-07-28T04:08:16;16.00;99.90
21676;DHT22;10999;51.332;9.458;2023-07-28T04:10:43;16.00;99.90
21676;DHT22;10999;51.332;9.458;2023-07-28T04:13:09;16.10;99.90
21676;DHT22;10999;51.332;9.458;2023-07-28T04:15:36;16.00;99.90
21676;DHT22;10999;51.332;9.458;2023-07-28T04:18:03;16.10;99.90
21676;DHT22;10999;51.332;9.458;2023-07-28T04:20:30;16.00;99.90
21676;DHT22;10999;51.332;9.458;2023-07-28T04:22:57;16.10;99.90
21676;DHT22;10999;51.332;9.458;2023-07-28T04:25:24;16.10;99.90
21676;DHT22;10999;51.332;9.458;2023-07-28T04:27:50;16.10;99.90
21676;DHT22;10999;51.332;9.458;2023-07-28T04:30:17;16.00;99.90
21676;DHT22;10999;51.332;9.458;2023-07-28T04:32:44;16.10;99.90
21676;DHT22;10999;51.332;9.458;2023-07-28T04:35:11;16.10;99.90
21676;DHT22;10999;51.332;9.458;2023-07-28T04:37:38;16.10;99.90
21676;DHT22;10999;51.332;9.458;2023-07-28T04:40:05;16.10;99.90
21676;DHT22;10999;51.332;9.458;2023-07-28T04:42:32;16.10;99.90
21676;DHT22;10999;51.332;9.458;2023-07-28T04:44:59;16.10;99.90
21676;DHT22;10999;51.332;9.458;2023-07-28T04:47:25;16.10;99.90
21676;DHT22;10999;51.332;9.458;2023-07-28T04:49:52;16.10;99.90
21676;DHT22;10999;51.332;9.458;2023-07-28T04:52:19;16.10;99.90
21676;DHT22;10999;51.332;9.458;2023-07-28T04:54:46;16.10;99.90
21676;DHT22;10999;51.332;9.458;2023-07-28T04:57:13;16.10;99.90
21676;DHT22;10999;51.332;9.458;2023-07-28T04:59:42;16.10;99.90
21676;DHT22;10999;51.332;9.458;2023-07-28T05:02:09;16.10;99.90
21676;DHT22;10999;51.332;9.458;2023-07-28T05:04:36;16.20;99.90
21676;DHT22;10999;51.332;9.458;2023-07-28T05:07:04;16.20;99.90
21676;DHT22;10999;51.332;9.458;2023-07-28T05:09:31;16.20;99.90
21676;DHT22;10999;51.332;9.458;2023-07-28T05:11:58;16.20;99.90
21676;DHT22;10999;51.332;9.458;2023-07-28T05:14:24;16.20;99.90
21676;DHT22;10999;51.332;9.458;2023-07-28T05:16:51;16.20;99.90
21676;DHT22;10999;51.332;9.458;2023-07-28T05:19:18;16.30;99.90
21676;DHT22;10999;51.332;9.458;2023-07-28T05:21:45;16.30;99.90
21676;DHT22;10999;51.332;9.458;2023-07-28T05:24:12;16.30;99.90
21676;DHT22;10999;51.332;9.458;2023-07-28T05:26:38;16.30;99.90
21676;DHT22;10999;51.332;9.458;2023-07-28T05:29:05;16.30;99.90
21676;DHT22;10999;51.332;9.458;2023-07-28T05:31:32;16.40;99.90
21676;DHT22;10999;51.332;9.458;2023-07-28T05:33:59;16.40;99.90
21676;DHT22;10999;51.332;9.458;2023-07-28T05:36:26;16.40;99.90
21676;DHT22;10999;51.332;9.458;2023-07-28T05:38:54;16.40;99.90
21676;DHT22;10999;51.332;9.458;2023-07-28T05:41:23;16.40;99.90
21676;DHT22;10999;51.332;9.458;2023-07-28T05:43:50;16.40;99.90
21676;DHT22;10999;51.332;9.458;2023-07-28T05:46:17;16.50;99.90
21676;DHT22;10999;51.332;9.458;2023-07-28T05:48:45;16.50;99.90
21676;DHT22;10999;51.332;9.458;2023-07-28T05:51:12;16.50;99.90
21676;DHT22;10999;51.332;9.458;2023-07-28T05:53:39;16.50;99.90
21676;DHT22;10999;51.332;9.458;2023-07-28T05:56:05;16.60;99.90
21676;DHT22;10999;51.332;9.458;2023-07-28T05:58:32;16.70;99.90
21676;DHT22;10999;51.332;9.458;2023-07-28T06:00:59;16.60;99.90
21676;DHT22;10999;51.332;9.458;2023-07-28T06:03:26;16.70;99.90
21676;DHT22;10999;51.332;9.458;2023-07-28T06:05:55;16.70;99.90
21676;DHT22;10999;51.332;9.458;2023-07-28T06:08:22;16.70;99.90
21676;DHT22;10999;51.332;9.458;2023-07-28T06:10:49;16.80;99.90
21676;DHT22;10999;51.332;9.458;2023-07-28T06:13:16;16.80;99.90
21676;DHT22;10999;51.332;9.458;2023-07-28T06:15:43;16.90;99.90
21676;DHT22;10999;51.332;9.458;2023-07-28T06:18:10;16.80;99.90
21676;DHT22;10999;51.332;9.458;2023-07-28T06:20:36;16.90;99.90
21676;DHT22;10999;51.332;9.458;2023-07-28T06:23:03;17.00;99.90
21676;DHT22;10999;51.332;9.458;2023-07-28T06:25:30;17.00;99.90
21676;DHT22;10999;51.332;9.458;2023-07-28T06:27:59;17.00;99.90
21676;DHT22;10999;51.332;9.458;2023-07-28T06:30:26;17.00;99.90
21676;DHT22;10999;51.332;9.458;2023-07-28T06:32:53;17.00;99.90
21676;DHT22;10999;51.332;9.458;2023-07-28T06:35:20;17.00;99.90
21676;DHT22;10999;51.332;9.458;2023-07-28T06:37:47;17.00;99.90
21676;DHT22;10999;51.332;9.458;2023-07-28T06:40:14;17.10;99.90
21676;DHT22;10999;51.332;9.458;2023-07-28T06:42:41;17.10;99.90
21676;DHT22;10999;51.332;9.458;2023-07-28T06:45:08;17.10;99.90
21676;DHT22;10999;51.332;9.458;2023-07-28T06:47:36;17.10;99.90
21676;DHT22;10999;51.332;9.458;2023-07-28T06:50:04;17.20;99.90
21676;DHT22;10999;51.332;9.458;2023-07-28T06:52:31;17.20;99.90
21676;DHT22;10999;51.332;9.458;2023-07-28T06:54:58;17.30;99.90
21676;DHT22;10999;51.332;9.458;2023-07-28T06:57:25;17.30;99.90
21676;DHT22;10999;51.332;9.458;2023-07-28T06:59:52;17.30;99.90
21676;DHT22;10999;51.332;9.458;2023-07-28T07:02:19;17.40;99.90
21676;DHT22;10999;51.332;9.458;2023-07-28T07:04:45;17.50;99.90
21676;DHT22;10999;51.332;9.458;2023-07-28T07:07:12;17.60;99.90
21676;DHT22;10999;51.332;9.458;2023-07-28T07:09:39;17.50;99.90
21676;DHT22;10999;51.332;9.458;2023-07-28T07:12:08;17.60;99.90
21676;DHT22;10999;51.332;9.458;2023-07-28T07:14:35;17.70;99.90
21676;DHT22;10999;51.332;9.458;2023-07-28T07:17:05;17.70;99.90
21676;DHT22;10999;51.332;9.458;2023-07-28T07:19:32;17.70;99.90
21676;DHT22;10999;51.332;9.458;2023-07-28T07:21:59;17.80;99.90
21676;DHT22;10999;51.332;9.458;2023-07-28T07:24:26;17.90;99.90
21676;DHT22;10999;51.332;9.458;2023-07-28T07:26:52;18.00;99.90
21676;DHT22;10999;51.332;9.458;2023-07-28T07:29:19;18.20;99.90
21676;DHT22;10999;51.332;9.458;2023-07-28T07:31:46;18.30;99.90
21676;DHT22;10999;51.332;9.458;2023-07-28T07:34:13;18.40;99.90
21676;DHT22;10999;51.332;9.458;2023-07-28T07:36:40;18.40;99.90
21676;DHT22;10999;51.332;9.458;2023-07-28T07:39:07;18.40;99.90
21676;DHT22;10999;51.332;9.458;2023-07-28T07:41:34;18.40;99.90
21676;DHT22;10999;51.332;9.458;2023-07-28T07:44:01;18.50;99.90
21676;DHT22;10999;51.332;9.458;2023-07-28T07:46:30;18.60;99.90
21676;DHT22;10999;51.332;9.458;2023-07-28T07:48:57;18.70;99.90
21676;DHT22;10999;51.332;9.458;2023-07-28T07:51:24;18.70;99.90
21676;DHT22;10999;51.332;9.458;2023-07-28T07:53:51;18.80;99.90
21676;DHT22;10999;51.332;9.458;2023-07-28T07:56:18;18.70;99.90
21676;DHT22;10999;51.332;9.458;2023-07-28T07:58:44;18.70;99.90
21676;DHT22;10999;51.332;9.458;2023-07-28T08:01:11;18.70;99.90
21676;DHT22;10999;51.332;9.458;2023-07-28T08:03:39;18.80;99.90
21676;DHT22;10999;51.332;9.458;2023-07-28T08:06:06;18.70;99.90
21676;DHT22;10999;51.332;9.458;2023-07-28T08:08:33;18.80;99.90
21676;DHT22;10999;51.332;9.458;2023-07-28T08:10:59;18.80;99.90
21676;DHT22;10999;51.332;9.458;2023-07-28T08:13:26;18.90;99.90
21676;DHT22;10999;51.332;9.458;2023-07-28T08:15:55;19.00;99.90
21676;DHT22;10999;51.332;9.458;2023-07-28T08:18:22;19.10;99.90
21676;DHT22;10999;51.332;9.458;2023-07-28T08:20:49;19.10;99.90
21676;DHT22;10999;51.332;9.458;2023-07-28T08:23:17;19.20;99.90
21676;DHT22;10999;51.332;9.458;2023-07-28T08:25:44;19.20;99.90
21676;DHT22;10999;51.332;9.458;2023-07-28T08:28:11;19.30;99.90
21676;DHT22;10999;51.332;9.458;2023-07-28T08:30:37;19.20;99.90
21676;DHT22;10999;51.332;9.458;2023-07-28T08:33:05;19.10;99.90
21676;DHT22;10999;51.332;9.458;2023-07-28T08:35:31;19.10;99.90
21676;DHT22;10999;51.332;9.458;2023-07-28T08:37:58;19.00;99.90
21676;DHT22;10999;51.332;9.458;2023-07-28T08:40:26;19.10;99.90
21676;DHT22;10999;51.332;9.458;2023-07-28T08:42:54;19.00;99.90
21676;DHT22;10999;51.332;9.458;2023-07-28T08:45:21;19.00;99.90
21676;DHT22;10999;51.332;9.458;2023-07-28T08:47:50;18.90;99.90
21676;DHT22;10999;51.332;9.458;2023-07-28T08:50:17;18.90;99.90
21676;DHT22;10999;51.332;9.458;2023-07-28T08:52:44;18.80;99.90
21676;DHT22;10999;51.332;9.458;2023-07-28T08:55:11;18.90;99.90
21676;DHT22;10999;51.332;9.458;2023-07-28T08:57:39;18.90;99.90
21676;DHT22;10999;51.332;9.458;2023-07-28T09:00:08;18.90;99.90
21676;DHT22;10999;51.332;9.458;2023-07-28T09:02:35;19.00;99.90
21676;DHT22;10999;51.332;9.458;2023-07-28T09:05:03;19.00;99.90
21676;DHT22;10999;51.332;9.458;2023-07-28T09:07:37;18.90;99.90
21676;DHT22;10999;51.332;9.458;2023-07-28T09:10:04;19.00;99.90
21676;DHT22;10999;51.332;9.458;2023-07-28T09:12:33;19.10;99.90
21676;DHT22;10999;51.332;9.458;2023-07-28T09:15:00;19.10;99.90
21676;DHT22;10999;51.332;9.458;2023-07-28T09:17:32;19.20;99.90
21676;DHT22;10999;51.332;9.458;2023-07-28T09:20:13;19.20;99.90
21676;DHT22;10999;51.332;9.458;2023-07-28T09:22:42;19.30;99.90
21676;DHT22;10999;51.332;9.458;2023-07-28T09:25:14;19.50;99.90
21676;DHT22;10999;51.332;9.458;2023-07-28T09:27:52;19.70;99.90
21676;DHT22;10999;51.332;9.458;2023-07-28T09:30:19;20.00;99.90
21676;DHT22;10999;51.332;9.458;2023-07-28T09:32:49;20.10;99.90
21676;DHT22;10999;51.332;9.458;2023-07-28T09:35:16;20.40;99.90
21676;DHT22;10999;51.332;9.458;2023-07-28T09:37:45;20.40;96.10
21676;DHT22;10999;51.332;9.458;2023-07-28T09:40:14;20.50;94.90
21676;DHT22;10999;51.332;9.458;2023-07-28T09:42:42;20.60;96.10
21676;DHT22;10999;51.332;9.458;2023-07-28T09:45:10;20.80;97.50
21676;DHT22;10999;51.332;9.458;2023-07-28T09:47:58;20.90;94.10
21676;DHT22;10999;51.332;9.458;2023-07-28T09:50:27;20.80;92.90
21676;DHT22;10999;51.332;9.458;2023-07-28T09:53:03;20.90;93.10
21676;DHT22;10999;51.332;9.458;2023-07-28T09:55:30;21.00;92.80
21676;DHT22;10999;51.332;9.458;2023-07-28T09:58:00;21.00;91.30
21676;DHT22;10999;51.332;9.458;2023-07-28T10:00:30;21.20;93.60
21676;DHT22;10999;51.332;9.458;2023-07-28T10:02:58;21.30;89.90
21676;DHT22;10999;51.332;9.458;2023-07-28T10:05:26;21.30;89.00
21676;DHT22;10999;51.332;9.458;2023-07-28T10:07:54;21.20;90.00
21676;DHT22;10999;51.332;9.458;2023-07-28T10:10:21;21.20;91.90
21676;DHT22;10999;51.332;9.458;2023-07-28T10:12:53;21.00;91.50
21676;DHT22;10999;51.332;9.458;2023-07-28T10:15:31;21.00;91.70
21676;DHT22;10999;51.332;9.458;2023-07-28T10:17:59;21.00;91.40
21676;DHT22;10999;51.332;9.458;2023-07-28T10:20:35;21.00;92.50
21676;DHT22;10999;51.332;9.458;2023-07-28T10:23:16;21.10;94.50
21676;DHT22;10999;51.332;9.458;2023-07-28T10:25:44;21.10;91.80
21676;DHT22;10999;51.332;9.458;2023-07-28T10:31:00;21.50;89.20
21676;DHT22;10999;51.332;9.458;2023-07-28T10:33:35;21.70;87.70
21676;DHT22;10999;51.332;9.458;2023-07-28T10:36:33;21.80;86.50
21676;DHT22;10999;51.332;9.458;2023-07-28T10:39:17;21.90;87.60
21676;DHT22;10999;51.332;9.458;2023-07-28T10:42:05;22.00;82.00
21676;DHT22;10999;51.332;9.458;2023-07-28T10:44:33;22.00;82.80
21676;DHT22;10999;51.332;9.458;2023-07-28T10:47:00;22.10;84.80
21676;DHT22;10999;51.332;9.458;2023-07-28T10:49:27;22.20;86.20
21676;DHT22;10999;51.332;9.458;2023-07-28T10:51:54;22.40;88.40
21676;DHT22;10999;51.332;9.458;2023-07-28T10:54:22;22.40;81.40
21676;DHT22;10999;51.332;9.458;2023-07-28T10:56:49;22.50;80.40
21676;DHT22;10999;51.332;9.458;2023-07-28T10:59:16;22.50;81.70
21676;DHT22;10999;51.332;9.458;2023-07-28T11:01:43;22.50;82.40
21676;DHT22;10999;51.332;9.458;2023-07-28T11:04:15;22.50;80.00
21676;DHT22;10999;51.332;9.458;2023-07-28T11:06:48;22.50;81.50
21676;DHT22;10999;51.332;9.458;2023-07-28T11:09:17;22.60;82.70
21676;DHT22;10999;51.332;9.458;2023-07-28T11:11:46;22.70;83.00
21676;DHT22;10999;51.332;9.458;2023-07-28T11:14:16;22.60;80.40
21676;DHT22;10999;51.332;9.458;2023-07-28T11:16:44;22.70;83.20
21676;DHT22;10999;51.332;9.458;2023-07-28T11:19:12;22.80;79.90
21676;DHT22;10999;51.332;9.458;2023-07-28T11:21:44;23.00;79.40
21676;DHT22;10999;51.332;9.458;2023-07-28T11:24:11;23.30;76.50
21676;DHT22;10999;51.332;9.458;2023-07-28T11:26:39;23.40;76.00
21676;DHT22;10999;51.332;9.458;2023-07-28T11:29:06;23.20;74.80
21676;DHT22;10999;51.332;9.458;2023-07-28T11:31:33;23.40;78.90
21676;DHT22;10999;51.332;9.458;2023-07-28T11:34:00;23.70;80.10
21676;DHT22;10999;51.332;9.458;2023-07-28T11:36:29;23.50;74.10
21676;DHT22;10999;51.332;9.458;2023-07-28T11:38:58;23.50;74.30
21676;DHT22;10999;51.332;9.458;2023-07-28T11:41:26;23.60;73.70
21676;DHT22;10999;51.332;9.458;2023-07-28T11:43:54;23.80;76.20
21676;DHT22;10999;51.332;9.458;2023-07-28T11:46:35;23.90;75.30
21676;DHT22;10999;51.332;9.458;2023-07-28T11:51:44;23.70;73.90
21676;DHT22;10999;51.332;9.458;2023-07-28T11:54:13;23.50;72.10
21676;DHT22;10999;51.332;9.458;2023-07-28T11:56:44;23.30;74.30
21676;DHT22;10999;51.332;9.458;2023-07-28T11:59:14;23.20;76.20
21676;DHT22;10999;51.332;9.458;2023-07-28T12:01:55;23.10;76.20
21676;DHT22;10999;51.332;9.458;2023-07-28T12:04:27;23.10;76.60
21676;DHT22;10999;51.332;9.458;2023-07-28T12:07:07;23.00;75.00
21676;DHT22;10999;51.332;9.458;2023-07-28T12:12:31;22.70;78.10
21676;DHT22;10999;51.332;9.458;2023-07-28T12:15:01;22.50;79.60
21676;DHT22;10999;51.332;9.458;2023-07-28T12:17:34;22.40;80.60
21676;DHT22;10999;51.332;9.458;2023-07-28T12:20:05;22.30;82.00
21676;DHT22;10999;51.332;9.458;2023-07-28T12:22:41;22.20;82.50
21676;DHT22;10999;51.332;9.458;2023-07-28T12:25:09;22.10;83.50
21676;DHT22;10999;51.332;9.458;2023-07-28T12:27:37;22.00;85.10
21676;DHT22;10999;51.332;9.458;2023-07-28T12:30:04;21.90;86.60
21676;DHT22;10999;51.332;9.458;2023-07-28T12:32:31;21.80;86.80
21676;DHT22;10999;51.332;9.458;2023-07-28T12:35:01;21.80;87.60
21676;DHT22;10999;51.332;9.458;2023-07-28T12:37:40;21.90;88.90
21676;DHT22;10999;51.332;9.458;2023-07-28T12:40:11;22.00;87.60
21676;DHT22;10999;51.332;9.458;2023-07-28T12:42:59;22.20;88.10
21676;DHT22;10999;51.332;9.458;2023-07-28T12:45:31;22.50;85.50
21676;DHT22;10999;51.332;9.458;2023-07-28T12:48:01;22.60;83.80
21676;DHT22;10999;51.332;9.458;2023-07-28T12:50:28;22.80;82.60
21676;DHT22;10999;51.332;9.458;2023-07-28T12:53:07;23.20;80.50
21676;DHT22;10999;51.332;9.458;2023-07-28T12:55:41;23.70;74.90
21676;DHT22;10999;51.332;9.458;2023-07-28T12:58:26;24.20;76.20
21676;DHT22;10999;51.332;9.458;2023-07-28T13:00:56;24.60;61.40
21676;DHT22;10999;51.332;9.458;2023-07-28T13:03:27;24.80;59.20
21676;DHT22;10999;51.332;9.458;2023-07-28T13:05:54;24.90;56.80
21676;DHT22;10999;51.332;9.458;2023-07-28T13:08:21;25.10;56.90
21676;DHT22;10999;51.332;9.458;2023-07-28T13:11:08;25.20;52.50
21676;DHT22;10999;51.332;9.458;2023-07-28T13:13:37;25.10;55.50
21676;DHT22;10999;51.332;9.458;2023-07-28T13:16:06;25.10;52.60
21676;DHT22;10999;51.332;9.458;2023-07-28T13:18:36;25.10;50.80
21676;DHT22;10999;51.332;9.458;2023-07-28T13:21:04;25.10;51.10
21676;DHT22;10999;51.332;9.458;2023-07-28T13:23:30;25.20;52.90
21676;DHT22;10999;51.332;9.458;2023-07-28T13:25:57;25.30;51.60
21676;DHT22;10999;51.332;9.458;2023-07-28T13:28:24;25.40;52.20
21676;DHT22;10999;51.332;9.458;2023-07-28T13:30:52;25.50;52.10
21676;DHT22;10999;51.332;9.458;2023-07-28T13:33:18;25.50;49.10
21676;DHT22;10999;51.332;9.458;2023-07-28T13:35:45;25.40;51.40
21676;DHT22;10999;51.332;9.458;2023-07-28T13:38:12;25.40;48.20
21676;DHT22;10999;51.332;9.458;2023-07-28T13:40:39;25.50;50.30
21676;DHT22;10999;51.332;9.458;2023-07-28T13:43:06;25.60;49.70
21676;DHT22;10999;51.332;9.458;2023-07-28T13:45:33;25.50;49.40
21676;DHT22;10999;51.332;9.458;2023-07-28T13:48:00;25.50;48.40
21676;DHT22;10999;51.332;9.458;2023-07-28T13:50:27;25.30;45.80
21676;DHT22;10999;51.332;9.458;2023-07-28T13:52:56;25.30;47.30
21676;DHT22;10999;51.332;9.458;2023-07-28T13:55:23;25.30;50.90
21676;DHT22;10999;51.332;9.458;2023-07-28T13:58:06;25.50;49.40
21676;DHT22;10999;51.332;9.458;2023-07-28T14:00:34;25.40;47.10
21676;DHT22;10999;51.332;9.458;2023-07-28T14:03:00;25.40;44.50
21676;DHT22;10999;51.332;9.458;2023-07-28T14:05:28;25.20;46.40
21676;DHT22;10999;51.332;9.458;2023-07-28T14:07:55;25.30;48.30
21676;DHT22;10999;51.332;9.458;2023-07-28T14:10:21;25.20;46.90
21676;DHT22;10999;51.332;9.458;2023-07-28T14:12:48;25.10;46.10
21676;DHT22;10999;51.332;9.458;2023-07-28T14:15:15;25.00;47.20
21676;DHT22;10999;51.332;9.458;2023-07-28T14:17:42;25.10;49.00
21676;DHT22;10999;51.332;9.458;2023-07-28T14:20:09;25.10;48.20
21676;DHT22;10999;51.332;9.458;2023-07-28T14:22:37;25.20;45.60
21676;DHT22;10999;51.332;9.458;2023-07-28T14:25:04;25.30;46.80
21676;DHT22;10999;51.332;9.458;2023-07-28T14:27:31;25.40;44.50
21676;DHT22;10999;51.332;9.458;2023-07-28T14:29:57;25.50;46.10
21676;DHT22;10999;51.332;9.458;2023-07-28T14:32:24;25.50;44.80
21676;DHT22;10999;51.332;9.458;2023-07-28T14:34:51;25.50;44.70
21676;DHT22;10999;51.332;9.458;2023-07-28T14:37:18;25.40;46.70
21676;DHT22;10999;51.332;9.458;2023-07-28T14:39:45;25.30;44.90
21676;DHT22;10999;51.332;9.458;2023-07-28T14:42:12;25.20;45.30
21676;DHT22;10999;51.332;9.458;2023-07-28T14:44:39;25.00;45.60
21676;DHT22;10999;51.332;9.458;2023-07-28T14:47:05;25.10;46.10
21676;DHT22;10999;51.332;9.458;2023-07-28T14:49:32;25.20;45.90
21676;DHT22;10999;51.332;9.458;2023-07-28T14:51:59;25.40;46.60
21676;DHT22;10999;51.332;9.458;2023-07-28T14:54:26;25.30;43.60
21676;DHT22;10999;51.332;9.458;2023-07-28T14:56:52;25.30;43.30
21676;DHT22;10999;51.332;9.458;2023-07-28T14:59:19;25.20;42.60
21676;DHT22;10999;51.332;9.458;2023-07-28T15:01:46;25.20;43.00
21676;DHT22;10999;51.332;9.458;2023-07-28T15:04:13;25.10;42.90
21676;DHT22;10999;51.332;9.458;2023-07-28T15:06:42;25.20;43.30
21676;DHT22;10999;51.332;9.458;2023-07-28T15:09:11;25.20;41.80
21676;DHT22;10999;51.332;9.458;2023-07-28T15:11:38;25.20;44.50
21676;DHT22;10999;51.332;9.458;2023-07-28T15:14:05;25.10;45.70
21676;DHT22;10999;51.332;9.458;2023-07-28T15:16:33;25.20;45.30
21676;DHT22;10999;51.332;9.458;2023-07-28T15:19:00;25.10;41.80
21676;DHT22;10999;51.332;9.458;2023-07-28T15:21:27;25.10;44.10
21676;DHT22;10999;51.332;9.458;2023-07-28T15:23:54;25.20;45.00
21676;DHT22;10999;51.332;9.458;2023-07-28T15:26:21;25.30;44.50
21676;DHT22;10999;51.332;9.458;2023-07-28T15:28:48;25.20;42.90
21676;DHT22;10999;51.332;9.458;2023-07-28T15:31:15;25.10;43.50
21676;DHT22;10999;51.332;9.458;2023-07-28T15:33:42;25.10;44.60
21676;DHT22;10999;51.332;9.458;2023-07-28T15:36:09;25.10;46.50
21676;DHT22;10999;51.332;9.458;2023-07-28T15:38:36;25.00;47.50
21676;DHT22;10999;51.332;9.458;2023-07-28T15:41:03;24.90;46.40
21676;DHT22;10999;51.332;9.458;2023-07-28T15:43:30;24.80;47.80
21676;DHT22;10999;51.332;9.458;2023-07-28T15:45:56;24.90;47.60
21676;DHT22;10999;51.332;9.458;2023-07-28T15:48:24;25.00;48.20